createdAt,value
2018-07-24T00:02:00.953Z,8.23
2018-07-24T00:04:29.483Z,9.65
2018-07-24T00:06:58.117Z,9.63
2018-07-24T00:09:27.770Z,11.38
2018-07-24T00:11:56.615Z,7.70
2018-07-24T00:14:25.125Z,5.72
2018-07-24T00:16:53.633Z,5.20
2018-07-24T00:19:22.139Z,5.60
2018-07-24T00:21:50.752Z,6.78
2018-07-24T00:24:20.201Z,5.67
2018-07-24T00:26:49.876Z,7.47
2018-07-24T00:29:18.949Z,7.37
2018-07-24T00:31:47.777Z,6.20
2018-07-24T00:34:16.595Z,8.10
2018-07-24T00:36:45.679Z,6.40
2018-07-24T00:39:15.500Z,7.28
2018-07-24T00:41:44.360Z,7.78
2018-07-24T00:44:12.824Z,8.05
2018-07-24T00:46:42.689Z,6.58
2018-07-24T00:49:11.513Z,7.00
2018-07-24T00:51:40.354Z,12.18
2018-07-24T00:54:09.796Z,8.40
2018-07-24T00:56:38.781Z,7.95
2018-07-24T00:59:07.292Z,7.00
2018-07-24T01:01:36.120Z,6.85
2018-07-24T01:04:04.596Z,6.40
2018-07-24T01:06:33.412Z,8.00
2018-07-24T01:09:02.241Z,11.22
2018-07-24T01:11:32.371Z,6.87
2018-07-24T01:14:01.685Z,11.22
2018-07-24T01:16:30.178Z,7.53
2018-07-24T01:18:58.998Z,8.93
2018-07-24T01:21:27.501Z,6.30
2018-07-24T01:23:56.611Z,6.00
2018-07-24T01:26:25.158Z,9.70
2018-07-24T01:28:53.993Z,7.17
2018-07-24T01:31:22.500Z,9.28
2018-07-24T01:33:51.861Z,9.78
2018-07-24T01:36:20.978Z,7.00
2018-07-24T01:38:50.368Z,10.30
2018-07-24T01:41:19.244Z,6.37
2018-07-24T01:43:47.732Z,7.80
2018-07-24T01:46:16.245Z,7.00
2018-07-24T01:48:44.509Z,6.15
2018-07-24T01:51:13.344Z,7.72
2018-07-24T01:53:41.820Z,11.35
2018-07-24T01:56:11.205Z,10.25
2018-07-24T01:58:40.041Z,7.62
2018-07-24T02:01:08.872Z,7.05
2018-07-24T02:03:39.177Z,6.95
2018-07-24T02:06:07.666Z,9.43
2018-07-24T02:08:36.826Z,8.65
2018-07-24T02:11:05.338Z,8.60
2018-07-24T02:13:33.835Z,7.58
2018-07-24T02:16:03.193Z,7.87
2018-07-24T02:18:32.028Z,7.40
2018-07-24T02:21:01.183Z,15.23
2018-07-24T02:23:30.584Z,7.50
2018-07-24T02:26:00.681Z,8.60
2018-07-24T02:28:29.180Z,8.65
2018-07-24T02:30:59.472Z,8.45
2018-07-24T02:33:29.317Z,7.60
2018-07-24T02:35:57.829Z,8.55
2018-07-24T02:38:26.317Z,8.73
2018-07-24T02:40:55.153Z,6.90
2018-07-24T02:43:24.342Z,9.35
2018-07-24T02:45:53.181Z,10.93
2018-07-24T02:48:21.873Z,9.80
2018-07-24T02:50:51.073Z,10.23
2018-07-24T02:53:19.557Z,9.20
2018-07-24T02:55:48.066Z,8.95
2018-07-24T02:58:17.200Z,8.60
2018-07-24T03:00:46.220Z,9.08
2018-07-24T03:03:15.068Z,8.60
2018-07-24T03:05:43.554Z,9.33
2018-07-24T03:08:12.566Z,7.83
2018-07-24T03:10:55.874Z,7.20
2018-07-24T03:13:24.374Z,8.65
2018-07-24T03:15:53.252Z,7.60
2018-07-24T03:18:21.761Z,8.10
2018-07-24T03:20:51.495Z,7.65
2018-07-24T03:23:20.317Z,9.28
2018-07-24T03:25:48.806Z,8.50
2018-07-24T03:28:17.918Z,12.07
2018-07-24T03:30:46.402Z,8.23
2018-07-24T03:33:14.881Z,10.13
2018-07-24T03:35:44.049Z,7.60
2018-07-24T03:38:12.828Z,8.78
2018-07-24T03:40:41.333Z,11.43
2018-07-24T03:43:10.161Z,8.35
2018-07-24T03:45:38.641Z,9.28
2018-07-24T03:48:07.110Z,9.58
2018-07-24T03:50:35.940Z,11.20
2018-07-24T03:53:05.732Z,11.95
2018-07-24T03:55:35.516Z,13.13
2018-07-24T03:58:03.985Z,8.50
2018-07-24T04:00:33.165Z,9.13
2018-07-24T04:03:02.321Z,8.78
2018-07-24T04:05:30.805Z,11.28
2018-07-24T04:08:00.262Z,11.22
2018-07-24T04:10:28.953Z,10.70
2018-07-24T04:12:57.769Z,8.13
2018-07-24T04:15:26.922Z,9.40
2018-07-24T04:17:55.835Z,8.80
2018-07-24T04:20:24.646Z,9.55
2018-07-24T04:22:53.454Z,9.50
2018-07-24T04:25:22.965Z,8.43
2018-07-24T04:27:51.445Z,7.42
2018-07-24T04:30:20.617Z,11.80
2018-07-24T04:32:49.745Z,9.75
2018-07-24T04:35:18.521Z,8.60
2018-07-24T04:37:47.041Z,11.45
2018-07-24T04:40:15.537Z,8.98
2018-07-24T04:42:44.189Z,13.75
2018-07-24T04:45:13.695Z,13.88
2018-07-24T04:47:43.470Z,16.73
2018-07-24T04:50:12.614Z,18.07
2018-07-24T04:52:41.098Z,12.40
2018-07-24T04:55:09.600Z,13.68
2018-07-24T04:57:39.356Z,14.03
2018-07-24T05:00:08.366Z,14.90
2018-07-24T05:02:37.257Z,10.68
2018-07-24T05:05:05.888Z,16.52
2018-07-24T05:07:34.696Z,11.53
2018-07-24T05:10:03.721Z,11.10
2018-07-24T05:12:32.241Z,9.75
2018-07-24T05:15:01.094Z,12.75
2018-07-24T05:17:29.610Z,18.77
2018-07-24T05:19:58.140Z,12.15
2018-07-24T05:22:26.629Z,15.88
2018-07-24T05:24:55.454Z,16.65
2018-07-24T05:27:23.966Z,12.95
2018-07-24T05:29:52.462Z,19.98
2018-07-24T05:32:20.969Z,23.60
2018-07-24T05:34:49.896Z,30.72
2018-07-24T05:37:19.070Z,34.38
2018-07-24T05:39:48.249Z,32.88
2018-07-24T05:42:17.124Z,15.80
2018-07-24T05:44:45.954Z,29.98
2018-07-24T05:47:15.119Z,14.70
2018-07-24T05:49:43.644Z,22.22
2018-07-24T05:52:12.124Z,18.30
2018-07-24T05:54:41.625Z,24.98
2018-07-24T05:57:10.107Z,19.98
2018-07-24T05:59:39.295Z,31.25
2018-07-24T06:02:08.166Z,38.95
2018-07-24T06:04:36.665Z,23.25
2018-07-24T06:07:05.505Z,28.00
2018-07-24T06:09:34.348Z,14.85
2018-07-24T06:12:03.526Z,24.12
2018-07-24T06:14:32.039Z,13.32
2018-07-24T06:17:00.750Z,15.03
2018-07-24T06:19:29.398Z,11.03
2018-07-24T06:21:58.242Z,16.52
2018-07-24T06:24:27.090Z,22.48
2018-07-24T06:26:55.921Z,12.43
2018-07-24T06:29:24.744Z,13.13
2018-07-24T06:31:53.229Z,13.55
2018-07-24T06:34:22.088Z,16.30
2018-07-24T06:36:52.279Z,23.73
2018-07-24T06:39:21.465Z,26.75
2018-07-24T06:41:50.638Z,11.25
2018-07-24T06:44:19.205Z,21.20
2018-07-24T06:46:48.492Z,15.18
2018-07-24T06:49:17.803Z,18.65
2018-07-24T06:51:47.287Z,17.05
2018-07-24T06:54:16.234Z,18.82
2018-07-24T06:56:45.079Z,14.05
2018-07-24T06:59:13.935Z,15.93
2018-07-24T07:01:43.325Z,15.35
2018-07-24T07:04:12.084Z,9.00
2018-07-24T07:06:40.597Z,14.98
2018-07-24T07:09:09.444Z,9.43
2018-07-24T07:11:38.720Z,13.22
2018-07-24T07:14:07.277Z,11.68
2018-07-24T07:16:36.129Z,21.20
2018-07-24T07:19:05.009Z,13.32
2018-07-24T07:21:33.233Z,9.90
2018-07-24T07:24:01.442Z,9.93
2018-07-24T07:26:29.940Z,8.63
2018-07-24T07:28:59.104Z,10.55
2018-07-24T07:31:28.182Z,15.70
2018-07-24T07:33:56.751Z,9.50
2018-07-24T07:36:25.589Z,13.35
2018-07-24T07:38:54.137Z,22.63
2018-07-24T07:41:22.392Z,17.87
2018-07-24T07:43:50.990Z,15.20
2018-07-24T07:46:19.344Z,9.80
2018-07-24T07:48:47.885Z,12.07
2018-07-24T07:51:17.729Z,8.17
2018-07-24T07:53:46.266Z,9.13
2018-07-24T07:56:15.466Z,11.63
2018-07-24T07:58:44.487Z,8.50
2018-07-24T08:01:13.214Z,8.47
2018-07-24T08:03:41.461Z,9.87
2018-07-24T08:06:09.957Z,8.30
2018-07-24T08:08:38.525Z,13.33
2018-07-24T08:11:07.469Z,11.10
2018-07-24T08:13:36.218Z,8.20
2018-07-24T08:16:04.770Z,7.60
2018-07-24T08:18:33.330Z,10.47
2018-07-24T08:21:01.564Z,7.27
2018-07-24T08:23:29.786Z,10.37
2018-07-24T08:25:58.546Z,11.10
2018-07-24T08:28:27.089Z,8.00
2018-07-24T08:30:56.453Z,11.20
2018-07-24T08:33:25.002Z,10.07
2018-07-24T08:35:55.132Z,7.67
2018-07-24T08:38:23.957Z,8.67
2018-07-24T08:40:52.645Z,8.63
2018-07-24T08:43:20.881Z,13.77
2018-07-24T08:45:49.429Z,9.00
2018-07-24T08:48:18.058Z,9.57
2018-07-24T08:50:46.454Z,11.23
2018-07-24T08:53:15.221Z,9.80
2018-07-24T08:55:43.701Z,9.70
2018-07-24T08:58:12.169Z,13.37
2018-07-24T09:00:41.078Z,12.97
2018-07-24T09:03:09.631Z,43.03
2018-07-24T09:05:38.142Z,30.07
2018-07-24T09:08:06.800Z,7.60
2018-07-24T09:10:35.048Z,9.27
2018-07-24T09:13:03.461Z,8.03
2018-07-24T09:15:32.406Z,16.53
2018-07-24T09:18:01.223Z,8.63
2018-07-24T09:20:30.120Z,6.83
2018-07-24T09:22:58.429Z,10.17
2018-07-24T09:25:27.863Z,9.13
2018-07-24T09:27:56.102Z,8.87
2018-07-24T09:30:24.932Z,8.63
2018-07-24T09:32:53.506Z,8.87
2018-07-24T09:35:22.415Z,9.97
2018-07-24T09:37:50.643Z,7.50
2018-07-24T09:40:19.200Z,6.97
2018-07-24T09:42:47.469Z,5.63
2018-07-24T09:45:16.876Z,6.00
2018-07-24T09:47:45.769Z,8.77
2018-07-24T09:50:14.653Z,11.37
2018-07-24T09:52:42.887Z,8.43
2018-07-24T09:55:11.456Z,15.77
2018-07-24T09:57:39.670Z,9.33
2018-07-24T10:00:08.481Z,12.67
2018-07-24T10:02:38.109Z,13.17
2018-07-24T10:05:06.964Z,10.60
2018-07-24T10:07:36.037Z,6.43
2018-07-24T10:10:04.665Z,42.07
2018-07-24T10:12:33.424Z,10.77
2018-07-24T10:15:01.784Z,8.30
2018-07-24T10:17:30.021Z,8.60
2018-07-24T10:19:58.603Z,7.40
2018-07-24T10:22:27.153Z,7.13
2018-07-24T10:24:55.373Z,11.60
2018-07-24T10:27:23.608Z,6.20
2018-07-24T10:29:52.198Z,11.90
2018-07-24T10:32:20.426Z,6.30
2018-07-24T10:34:48.661Z,11.33
2018-07-24T10:37:16.897Z,6.10
2018-07-24T10:39:45.479Z,6.23
2018-07-24T10:42:13.731Z,10.03
2018-07-24T10:44:42.259Z,5.73
2018-07-24T10:47:10.821Z,7.73
2018-07-24T10:49:39.409Z,6.03
2018-07-24T10:52:08.962Z,12.70
2018-07-24T10:54:37.526Z,5.20
2018-07-24T10:57:06.088Z,7.43
2018-07-24T10:59:34.640Z,5.20
2018-07-24T11:02:03.185Z,4.63
2018-07-24T11:04:31.729Z,7.80
2018-07-24T11:07:00.298Z,11.50
2018-07-24T11:09:28.529Z,4.77
2018-07-24T11:11:57.725Z,8.90
2018-07-24T11:14:26.277Z,8.60
2018-07-24T11:16:54.464Z,7.83
2018-07-24T11:19:22.693Z,6.00
2018-07-24T11:21:51.263Z,9.63
2018-07-24T11:24:19.993Z,8.17
2018-07-24T11:26:48.209Z,8.20
2018-07-24T11:29:16.970Z,7.13
2018-07-24T11:31:45.530Z,4.90
2018-07-24T11:34:13.977Z,8.43
2018-07-24T11:36:42.186Z,6.33
2018-07-24T11:39:11.464Z,7.03
2018-07-24T11:41:40.051Z,5.33
2018-07-24T11:44:08.425Z,6.03
2018-07-24T11:46:37.157Z,6.93
2018-07-24T11:49:05.525Z,6.83
2018-07-24T11:51:34.909Z,9.70
2018-07-24T11:54:03.638Z,5.93
2018-07-24T11:56:32.354Z,5.70
2018-07-24T11:59:00.629Z,9.20
2018-07-24T12:01:28.881Z,7.90
2018-07-24T12:03:57.813Z,5.10
2018-07-24T12:06:26.029Z,18.90
2018-07-24T12:08:55.350Z,15.63
2018-07-24T12:11:23.589Z,7.47
2018-07-24T12:13:52.044Z,9.87
2018-07-24T12:16:20.585Z,5.80
2018-07-24T12:18:49.140Z,6.10
2018-07-24T12:21:17.365Z,4.40
2018-07-24T12:23:45.604Z,5.57
2018-07-24T12:26:14.193Z,4.83
2018-07-24T12:28:42.741Z,6.53
2018-07-24T12:31:11.488Z,6.33
2018-07-24T12:33:40.378Z,6.77
2018-07-24T12:36:09.022Z,10.00
2018-07-24T12:38:37.974Z,17.50
2018-07-24T12:41:06.553Z,6.23
2018-07-24T12:43:35.193Z,7.10
2018-07-24T12:46:04.037Z,4.17
2018-07-24T12:48:32.609Z,6.10
2018-07-24T12:51:01.165Z,3.87
2018-07-24T12:53:30.037Z,4.50
2018-07-24T12:55:58.651Z,6.53
2018-07-24T12:58:28.682Z,6.10
2018-07-24T13:00:56.903Z,3.97
2018-07-24T13:03:25.877Z,3.90
2018-07-24T13:05:55.658Z,11.03
2018-07-24T13:08:24.320Z,8.43
2018-07-24T13:10:52.730Z,3.70
2018-07-24T13:13:21.116Z,7.10
2018-07-24T13:15:49.350Z,7.73
2018-07-24T13:18:18.229Z,7.60
2018-07-24T13:20:47.125Z,4.43
2018-07-24T13:23:15.348Z,7.60
2018-07-24T13:25:43.580Z,8.13
2018-07-24T13:28:12.432Z,8.17
2018-07-24T13:30:40.640Z,5.20
2018-07-24T13:33:09.210Z,7.87
2018-07-24T13:35:37.846Z,3.57
2018-07-24T13:38:07.414Z,5.47
2018-07-24T13:40:35.649Z,5.20
2018-07-24T13:43:05.090Z,5.10
2018-07-24T13:45:33.318Z,6.60
2018-07-24T13:48:01.543Z,4.90
2018-07-24T13:50:29.741Z,3.60
2018-07-24T13:53:01.126Z,4.17
2018-07-24T13:55:29.974Z,3.40
2018-07-24T13:57:59.708Z,5.70
2018-07-24T14:00:27.922Z,3.70
2018-07-24T14:02:56.151Z,2.93
2018-07-24T14:05:24.738Z,3.50
2018-07-24T14:07:55.188Z,3.93
2018-07-24T14:10:23.829Z,5.50
2018-07-24T14:12:53.032Z,3.10
2018-07-24T14:15:22.745Z,12.23
2018-07-24T14:17:54.855Z,6.50
2018-07-24T14:20:24.465Z,3.40
2018-07-24T14:22:57.917Z,4.23
2018-07-24T14:25:26.170Z,4.80
2018-07-24T14:27:59.785Z,6.27
2018-07-24T14:30:29.123Z,4.70
2018-07-24T14:33:00.213Z,5.90
2018-07-24T14:35:29.561Z,3.23
2018-07-24T14:37:58.633Z,3.50
2018-07-24T14:40:37.068Z,5.93
2018-07-24T14:43:22.761Z,3.80
2018-07-24T14:45:55.085Z,4.23
2018-07-24T14:51:39.438Z,5.23
2018-07-24T14:54:45.873Z,5.03
2018-07-24T14:57:14.134Z,4.10
2018-07-24T14:59:46.074Z,3.73
2018-07-24T15:04:50.928Z,3.53
2018-07-24T15:07:19.393Z,5.70
2018-07-24T15:09:49.263Z,4.80
2018-07-24T15:12:18.062Z,4.03
2018-07-24T15:14:53.028Z,6.37
2018-07-24T15:17:22.183Z,4.03
2018-07-24T15:19:51.750Z,3.30
2018-07-24T15:22:21.042Z,7.60
2018-07-24T15:24:50.539Z,3.60
2018-07-24T15:27:19.286Z,2.97
2018-07-24T15:29:47.532Z,3.80
2018-07-24T15:32:15.902Z,3.20
2018-07-24T15:34:44.706Z,4.93
2018-07-24T15:37:12.921Z,4.50
2018-07-24T15:39:41.157Z,3.77
2018-07-24T15:42:09.450Z,2.67
2018-07-24T15:44:37.704Z,2.53
2018-07-24T15:47:06.331Z,4.50
2018-07-24T15:49:34.783Z,5.97
2018-07-24T15:52:04.456Z,6.60
2018-07-24T15:54:34.458Z,5.33
2018-07-24T15:57:03.017Z,3.93
2018-07-24T15:59:31.901Z,3.73
2018-07-24T16:02:00.461Z,4.00
2018-07-24T16:04:29.392Z,2.60
2018-07-24T16:07:00.768Z,3.87
2018-07-24T16:09:29.380Z,3.57
2018-07-24T16:11:59.258Z,3.80
2018-07-24T16:14:28.193Z,12.97
2018-07-24T16:16:56.466Z,7.40
2018-07-24T16:19:25.394Z,7.30
2018-07-24T16:21:53.855Z,2.70
2018-07-24T16:24:22.629Z,3.60
2018-07-24T16:26:52.505Z,4.10
2018-07-24T16:29:25.349Z,3.30
2018-07-24T16:31:55.705Z,6.53
2018-07-24T16:34:25.215Z,2.83
2018-07-24T16:36:56.520Z,3.43
2018-07-24T16:39:28.064Z,2.67
2018-07-24T16:42:07.125Z,4.10
2018-07-24T16:44:35.385Z,2.47
2018-07-24T16:47:21.653Z,2.10
2018-07-24T16:50:13.159Z,5.50
2018-07-24T16:52:56.585Z,3.87
2018-07-24T16:58:14.345Z,3.40
2018-07-24T17:03:30.493Z,2.70
2018-07-24T17:05:59.089Z,2.50
2018-07-24T17:08:27.743Z,4.97
2018-07-24T17:10:57.254Z,2.33
2018-07-24T17:13:25.839Z,4.17
2018-07-24T17:15:54.071Z,3.73
2018-07-24T17:18:22.641Z,2.17
2018-07-24T17:20:51.616Z,2.13
2018-07-24T17:23:20.296Z,2.00
2018-07-24T17:25:48.656Z,4.37
2018-07-24T17:28:16.866Z,2.07
2018-07-24T17:30:45.075Z,2.63
2018-07-24T17:33:13.627Z,2.53
2018-07-24T17:35:41.911Z,3.17
2018-07-24T17:38:10.466Z,2.43
2018-07-24T17:40:38.735Z,2.50
2018-07-24T17:43:07.843Z,3.03
2018-07-24T17:45:36.095Z,5.13
2018-07-24T17:48:04.471Z,2.47
2018-07-24T17:50:32.908Z,3.97
2018-07-24T17:53:01.285Z,2.50
2018-07-24T17:55:30.112Z,8.00
2018-07-24T17:57:59.000Z,2.33
2018-07-24T18:00:27.337Z,5.10
2018-07-24T18:02:57.419Z,3.70
2018-07-24T18:05:26.598Z,3.10
2018-07-24T18:07:55.472Z,2.87
2018-07-24T18:10:23.677Z,3.53
2018-07-24T18:12:52.306Z,2.60
2018-07-24T18:15:20.592Z,3.53
2018-07-24T18:17:48.985Z,3.50
2018-07-24T18:20:17.853Z,3.73
2018-07-24T18:22:46.130Z,3.17
2018-07-24T18:25:14.705Z,5.07
2018-07-24T18:27:43.306Z,5.03
2018-07-24T18:30:11.998Z,3.93
2018-07-24T18:32:40.208Z,8.07
2018-07-24T18:35:10.304Z,4.30
2018-07-24T18:37:39.161Z,4.63
2018-07-24T18:40:07.374Z,2.83
2018-07-24T18:42:35.924Z,11.57
2018-07-24T18:45:04.145Z,5.27
2018-07-24T18:47:33.033Z,9.27
2018-07-24T18:50:01.297Z,3.37
2018-07-24T18:52:29.534Z,8.30
2018-07-24T18:54:59.408Z,4.00
2018-07-24T18:57:28.872Z,3.70
2018-07-24T18:59:58.021Z,5.20
2018-07-24T19:02:26.633Z,3.93
2018-07-24T19:04:55.955Z,3.33
2018-07-24T19:07:25.846Z,5.80
2018-07-24T19:09:54.449Z,3.23
2018-07-24T19:12:22.707Z,3.30
2018-07-24T19:14:51.021Z,5.30
2018-07-24T19:17:19.304Z,5.10
2018-07-24T19:19:47.662Z,8.30
2018-07-24T19:25:02.215Z,7.93
2018-07-24T19:27:31.129Z,3.73
2018-07-24T19:30:00.185Z,5.03
2018-07-24T19:32:28.413Z,3.70
2018-07-24T19:34:56.804Z,3.73
2018-07-24T19:37:25.130Z,4.90
2018-07-24T19:39:53.671Z,3.27
2018-07-24T19:42:22.247Z,4.77
2018-07-24T19:44:50.801Z,4.43
2018-07-24T19:47:20.573Z,4.07
2018-07-24T19:49:50.108Z,4.90
2018-07-24T19:52:19.377Z,8.50
2018-07-24T19:54:47.930Z,6.87
2018-07-24T19:57:16.501Z,5.43
2018-07-24T19:59:44.729Z,3.83
2018-07-24T20:02:13.277Z,5.30
2018-07-24T20:04:41.502Z,6.10
2018-07-24T20:07:09.723Z,9.37
2018-07-24T20:09:38.242Z,8.30
2018-07-24T20:12:06.498Z,3.70
2018-07-24T20:14:34.718Z,6.67
2018-07-24T20:17:03.599Z,4.93
2018-07-24T20:19:31.819Z,7.30
2018-07-24T20:22:00.373Z,7.03
2018-07-24T20:24:28.910Z,5.83
2018-07-24T20:26:57.100Z,6.50
2018-07-24T20:29:25.301Z,7.97
2018-07-24T20:31:53.525Z,6.53
2018-07-24T20:34:22.077Z,9.57
2018-07-24T20:36:50.827Z,4.70
2018-07-24T20:39:19.765Z,7.90
2018-07-24T20:41:48.786Z,5.37
2018-07-24T20:44:18.048Z,5.93
2018-07-24T20:46:46.918Z,3.93
2018-07-24T20:49:15.530Z,4.43
2018-07-24T20:51:44.939Z,5.97
2018-07-24T20:54:13.153Z,7.37
2018-07-24T20:56:42.388Z,5.20
2018-07-24T20:59:10.944Z,9.53
2018-07-24T21:01:39.157Z,4.63
2018-07-24T21:04:07.405Z,15.80
2018-07-24T21:06:36.026Z,8.23
2018-07-24T21:09:07.506Z,7.90
2018-07-24T21:11:36.404Z,4.53
2018-07-24T21:14:05.022Z,5.63
2018-07-24T21:16:34.059Z,10.70
2018-07-24T21:19:02.344Z,5.57
2018-07-24T21:21:31.254Z,5.40
2018-07-24T21:24:01.831Z,4.90
2018-07-24T21:26:31.395Z,5.20
2018-07-24T21:29:00.348Z,7.43
2018-07-24T21:31:28.912Z,4.30
2018-07-24T21:33:57.720Z,5.90
2018-07-24T21:36:25.973Z,13.40
2018-07-24T21:38:54.215Z,5.23
2018-07-24T21:41:23.076Z,7.00
2018-07-24T21:43:51.653Z,6.10
2018-07-24T21:46:19.915Z,7.53
2018-07-24T21:48:48.205Z,7.50
2018-07-24T21:51:16.920Z,5.67
2018-07-24T21:53:45.478Z,9.20
2018-07-24T21:56:14.057Z,5.40
2018-07-24T21:58:42.285Z,4.80
2018-07-24T22:01:11.614Z,5.13
2018-07-24T22:03:40.306Z,4.80
2018-07-24T22:06:09.065Z,5.10
2018-07-24T22:08:37.588Z,11.17
2018-07-24T22:11:06.441Z,11.80
2018-07-24T22:13:35.239Z,7.67
2018-07-24T22:16:03.458Z,6.20
2018-07-24T22:18:31.677Z,6.57
2018-07-24T22:21:00.569Z,9.60
2018-07-24T22:23:28.804Z,6.60
2018-07-24T22:25:57.393Z,6.90
2018-07-24T22:28:26.278Z,6.90
2018-07-24T22:30:54.482Z,6.67
2018-07-24T22:33:23.042Z,9.43
2018-07-24T22:35:51.372Z,6.50
2018-07-24T22:38:19.940Z,12.43
2018-07-24T22:40:48.205Z,5.30
2018-07-24T22:43:16.763Z,4.73
2018-07-24T22:45:45.004Z,5.53
2018-07-24T22:48:13.270Z,6.10
2018-07-24T22:50:42.169Z,5.10
2018-07-24T22:53:10.390Z,5.90
2018-07-24T22:55:38.610Z,5.97
2018-07-24T22:58:07.493Z,4.40
2018-07-24T23:00:35.686Z,4.63
2018-07-24T23:03:04.235Z,5.70
2018-07-24T23:05:32.439Z,6.37
2018-07-24T23:08:01.008Z,4.73
2018-07-24T23:10:31.398Z,7.03
2018-07-24T23:13:00.537Z,4.80
2018-07-24T23:15:29.114Z,7.70
2018-07-24T23:17:57.290Z,5.70
2018-07-24T23:20:26.599Z,6.97
2018-07-24T23:22:55.144Z,4.90
2018-07-24T23:25:23.886Z,4.93
2018-07-24T23:27:52.243Z,6.50
2018-07-24T23:30:20.840Z,5.27
2018-07-24T23:32:50.306Z,4.80
2018-07-24T23:35:19.165Z,6.00
2018-07-24T23:37:47.705Z,5.77
2018-07-24T23:40:17.224Z,9.10
2018-07-24T23:42:45.789Z,6.90
2018-07-24T23:45:14.005Z,5.67
2018-07-24T23:47:42.232Z,6.73
2018-07-24T23:50:10.463Z,5.33
2018-07-24T23:52:38.748Z,13.30
2018-07-24T23:55:07.965Z,8.07
2018-07-24T23:57:37.142Z,7.10
